Time;durP1;ratioP1;P1;durP2;ratioP2;P2;SDS_P1;SDS_P2;PMS_P1;PMS_P2;Temp;Humidity;BMP_temperature;BMP_pressure;BME280_temperature;BME280_humidity;BME280_pressure;Samples;Min_cycle;Max_cycle;Signal;HPM_P1;HPM_P2
2023/04/27 00:03:09;;;;;;;14.88;10.00;;;;;;;1.37;100.00;101798.94;10503005;28;20456;-76
2023/04/27 00:08:10;;;;;;;17.63;11.27;;;;;;;1.25;100.00;101801.19;10523403;28;20075;-76
2023/04/27 00:13:10;;;;;;;16.17;10.00;;;;;;;1.16;100.00;101799.50;10521483;28;20047;-75
2023/04/27 00:18:11;;;;;;;16.27;10.75;;;;;;;1.18;100.00;101804.81;10522013;28;20067;-76
2023/04/27 00:23:11;;;;;;;12.75;9.05;;;;;;;1.17;100.00;101809.06;10520478;28;20123;-75
2023/04/27 00:28:12;;;;;;;13.88;10.50;;;;;;;1.07;100.00;101797.69;10527367;28;20071;-76
2023/04/27 00:33:12;;;;;;;15.50;9.55;;;;;;;0.92;100.00;101791.88;10512138;28;20126;-76
2023/04/27 00:38:13;;;;;;;15.25;10.50;;;;;;;0.77;100.00;101804.13;10531480;28;20159;-76
2023/04/27 00:43:13;;;;;;;15.50;9.50;;;;;;;0.61;100.00;101805.13;10529089;28;20127;-76
2023/04/27 00:48:14;;;;;;;14.65;10.95;;;;;;;0.42;100.00;101800.66;10531756;28;20063;-76
2023/04/27 00:53:14;;;;;;;14.90;8.57;;;;;;;0.36;100.00;101802.59;10509498;28;20555;-76
2023/04/27 00:58:15;;;;;;;15.30;10.35;;;;;;;0.20;100.00;101800.09;10519421;28;20068;-75
2023/04/27 01:03:16;;;;;;;19.38;11.55;;;;;;;0.03;100.00;101805.13;10506098;28;20117;-76
2023/04/27 01:08:16;;;;;;;23.10;10.88;;;;;;;-0.13;100.00;101805.19;10522912;28;20468;-77
2023/04/27 01:13:17;;;;;;;15.77;10.10;;;;;;;-0.24;100.00;101804.97;10528960;28;20043;-77
2023/04/27 01:18:18;;;;;;;19.70;11.88;;;;;;;-0.29;100.00;101813.88;10521415;28;20036;-77
2023/04/27 01:23:18;;;;;;;19.75;12.65;;;;;;;-0.30;100.00;101814.63;10510363;28;20185;-76
2023/04/27 01:28:19;;;;;;;17.13;10.57;;;;;;;-0.43;100.00;101820.09;10525838;28;20028;-76
2023/04/27 01:33:19;;;;;;;21.65;11.52;;;;;;;-0.46;100.00;101817.19;10521965;28;20128;-76
2023/04/27 01:38:20;;;;;;;14.75;8.98;;;;;;;-0.57;100.00;101820.28;10500885;28;20586;-76
2023/04/27 01:43:20;;;;;;;13.80;9.30;;;;;;;-0.67;100.00;101811.56;10508530;28;20139;-76
2023/04/27 01:48:21;;;;;;;21.02;12.20;;;;;;;-0.65;100.00;101820.34;10491107;28;20040;-76
2023/04/27 01:53:21;;;;;;;20.10;13.02;;;;;;;-0.65;100.00;101809.19;10527665;28;20035;-76
2023/04/27 01:58:22;;;;;;;18.08;12.15;;;;;;;-0.68;100.00;101820.03;10518330;28;20056;-76
2023/04/27 02:03:22;;;;;;;18.38;12.00;;;;;;;-0.51;100.00;101816.72;10526613;28;20072;-77
2023/04/27 02:08:23;;;;;;;18.67;11.98;;;;;;;-0.62;100.00;101818.13;10525141;28;20144;-76
2023/04/27 02:13:23;;;;;;;20.90;12.18;;;;;;;-0.72;100.00;101815.28;10523934;28;20130;-76
2023/04/27 02:18:24;;;;;;;20.17;15.18;;;;;;;-0.69;100.00;101817.31;10524883;28;20067;-77
2023/04/27 02:23:24;;;;;;;23.80;15.25;;;;;;;-0.70;100.00;101812.91;10524592;28;20139;-76
2023/04/27 02:28:25;;;;;;;23.85;14.93;;;;;;;-0.74;100.00;101806.50;10525263;28;20071;-76
2023/04/27 02:33:25;;;;;;;25.33;17.60;;;;;;;-0.75;100.00;101800.47;10526932;28;20135;-76
2023/04/27 02:38:27;;;;;;;28.50;16.90;;;;;;;-0.78;100.00;101800.13;10523477;28;20071;-76
2023/04/27 02:43:28;;;;;;;21.33;13.85;;;;;;;-0.80;100.00;101782.72;10516770;28;20044;-76
2023/04/27 02:48:29;;;;;;;26.98;17.42;;;;;;;-0.93;100.00;101783.94;10506718;28;20150;-76
2023/04/27 02:53:30;;;;;;;21.73;15.20;;;;;;;-0.95;100.00;101781.97;10496709;28;20040;-76
2023/04/27 02:58:31;;;;;;;30.75;16.60;;;;;;;-1.01;100.00;101787.34;10518277;28;20115;-76
2023/04/27 03:03:31;;;;;;;27.58;17.58;;;;;;;-1.05;100.00;101786.13;10519165;28;20119;-75
2023/04/27 03:08:31;;;;;;;28.42;17.23;;;;;;;-1.09;100.00;101798.44;10525087;28;20212;-76
2023/04/27 03:13:40;;;;;;;25.70;14.65;;;;;;;-1.06;100.00;101797.13;10525168;28;20040;-76
2023/04/27 03:18:40;;;;;;;23.88;14.52;;;;;;;-0.94;100.00;101792.41;10525119;28;20043;-76
2023/04/27 03:23:41;;;;;;;20.38;14.95;;;;;;;-0.97;100.00;101791.19;10522849;28;20170;-76
2023/04/27 03:28:41;;;;;;;34.85;16.83;;;;;;;-0.98;100.00;101797.97;10523961;28;20036;-76
2023/04/27 03:33:42;;;;;;;21.13;13.95;;;;;;;-1.10;100.00;101794.97;10523895;28;20406;-76
2023/04/27 03:38:42;;;;;;;29.83;16.38;;;;;;;-1.08;100.00;101801.19;10505018;28;20171;-76
2023/04/27 03:43:43;;;;;;;34.78;18.02;;;;;;;-1.14;100.00;101795.38;10523494;28;20040;-76
2023/04/27 03:48:45;;;;;;;32.83;18.95;;;;;;;-1.21;100.00;101800.59;10521054;28;20039;-76
2023/04/27 03:53:46;;;;;;;25.45;15.63;;;;;;;-1.23;100.00;101812.38;10504077;28;20123;-76
2023/04/27 03:58:46;;;;;;;24.75;15.77;;;;;;;-1.25;100.00;101813.84;10522278;28;20036;-76
2023/04/27 04:03:47;;;;;;;27.08;15.10;;;;;;;-1.23;100.00;101820.06;10527170;28;20548;-76
2023/04/27 04:08:47;;;;;;;25.38;17.05;;;;;;;-1.25;100.00;101817.31;10529741;28;20136;-76
2023/04/27 04:13:48;;;;;;;23.95;16.77;;;;;;;-1.31;100.00;101816.63;10530561;28;20485;-76
2023/04/27 04:18:48;;;;;;;34.13;17.25;;;;;;;-1.33;100.00;101810.44;10498758;28;20086;-77
2023/04/27 04:23:49;;;;;;;30.95;19.55;;;;;;;-1.31;100.00;101820.88;10527453;28;20519;-76
2023/04/27 04:28:49;;;;;;;21.45;16.08;;;;;;;-1.31;100.00;101821.78;10528442;28;20122;-75
2023/04/27 04:33:50;;;;;;;24.55;17.35;;;;;;;-1.25;100.00;101825.03;10527642;28;20169;-76
2023/04/27 04:38:53;;;;;;;26.27;15.32;;;;;;;-1.17;100.00;101830.09;10524685;28;20068;-76
2023/04/27 04:43:54;;;;;;;30.92;18.17;;;;;;;-1.14;100.00;101827.88;10503855;28;20046;-76
2023/04/27 04:48:54;;;;;;;30.40;22.30;;;;;;;-1.10;100.00;101830.03;10514577;28;20032;-74
2023/04/27 04:53:55;;;;;;;32.75;22.05;;;;;;;-1.00;100.00;101839.66;10520444;28;20102;-75
2023/04/27 04:58:56;;;;;;;38.97;21.77;;;;;;;-0.96;100.00;101840.16;10502916;28;20150;-76
2023/04/27 05:03:56;;;;;;;35.63;23.42;;;;;;;-0.86;100.00;101838.59;10493170;28;20143;-75
2023/04/27 05:08:57;;;;;;;28.15;18.70;;;;;;;-0.74;100.00;101847.66;10520319;28;20101;-75
2023/04/27 05:13:57;;;;;;;28.10;19.83;;;;;;;-0.54;100.00;101836.97;10526605;28;20493;-75
2023/04/27 05:18:58;;;;;;;23.95;18.50;;;;;;;-0.32;100.00;101845.31;10524865;28;20126;-75
2023/04/27 05:23:58;;;;;;;32.22;21.10;;;;;;;-0.21;100.00;101848.09;10505444;28;20136;-75
2023/04/27 05:28:59;;;;;;;26.90;20.30;;;;;;;0.16;100.00;101853.69;10523835;28;20119;-75
2023/04/27 05:34:00;;;;;;;27.23;17.83;;;;;;;0.58;100.00;101856.34;10522405;28;20036;-75
2023/04/27 05:39:01;;;;;;;25.23;19.27;;;;;;;1.04;100.00;101851.50;10523118;28;20071;-75
2023/04/27 05:44:01;;;;;;;24.37;15.07;;;;;;;1.91;100.00;101853.25;10509041;28;20122;-75
2023/04/27 05:49:02;;;;;;;25.23;13.40;;;;;;;3.44;100.00;101855.59;10503356;28;20040;-75
2023/04/27 05:54:02;;;;;;;18.08;10.60;;;;;;;4.95;100.00;101849.91;10515232;28;20123;-77
2023/04/27 05:59:03;;;;;;;16.08;8.10;;;;;;;6.78;100.00;101852.66;10523680;28;20059;-75
2023/04/27 06:04:04;;;;;;;15.55;7.10;;;;;;;8.81;100.00;101816.44;10520537;28;20534;-75
2023/04/27 06:09:04;;;;;;;11.43;8.48;;;;;;;10.43;100.00;101850.66;10522226;28;20134;-75
2023/04/27 06:14:05;;;;;;;18.73;6.90;;;;;;;11.47;100.00;101857.03;10481175;28;20116;-76
2023/04/27 06:19:06;;;;;;;14.23;6.72;;;;;;;12.25;96.79;101851.94;10517541;28;20155;-76
2023/04/27 06:24:06;;;;;;;11.57;7.28;;;;;;;12.38;85.25;101860.50;10514994;28;20059;-76
2023/04/27 06:29:07;;;;;;;14.85;6.85;;;;;;;12.88;77.78;101851.88;10514289;28;20419;-75
2023/04/27 06:34:07;;;;;;;10.95;6.22;;;;;;;12.43;78.67;101849.47;10516139;28;20436;-74
2023/04/27 06:39:07;;;;;;;13.23;6.30;;;;;;;12.85;77.73;101845.56;10525189;28;20076;-76
2023/04/27 06:44:08;;;;;;;12.57;5.45;;;;;;;13.53;71.85;101842.97;10519996;28;20127;-76
2023/04/27 06:49:09;;;;;;;11.75;5.18;;;;;;;13.68;72.64;101854.28;10517880;28;20593;-77
2023/04/27 06:54:09;;;;;;;10.65;5.55;;;;;;;13.64;68.83;101852.31;10523748;28;20182;-77
2023/04/27 06:59:10;;;;;;;9.63;5.50;;;;;;;13.23;68.84;101849.34;10523980;28;20068;-78
2023/04/27 07:04:10;;;;;;;28.60;6.72;;;;;;;13.02;71.96;101841.19;10503321;28;20115;-77
2023/04/27 07:09:11;;;;;;;9.90;5.57;;;;;;;13.88;72.01;101844.78;10523334;28;20044;-77
2023/04/27 07:14:12;;;;;;;13.80;5.57;;;;;;;14.06;64.61;101849.13;10526364;28;20044;-76
2023/04/27 07:19:12;;;;;;;10.73;6.22;;;;;;;14.06;66.62;101846.50;10501967;28;20512;-77
2023/04/27 07:24:13;;;;;;;8.10;5.13;;;;;;;13.77;66.42;101848.59;10524214;28;20128;-77
2023/04/27 07:29:16;;;;;;;7.22;4.72;;;;;;;13.91;64.75;101837.03;10523621;28;20118;-77
2023/04/27 07:34:16;;;;;;;11.38;5.63;;;;;;;13.95;64.18;101836.34;10523575;28;20040;-77
2023/04/27 07:39:17;;;;;;;8.77;5.13;;;;;;;13.82;65.92;101844.47;10514231;28;20115;-77
2023/04/27 07:44:18;;;;;;;10.30;5.95;;;;;;;14.96;62.50;101843.72;10524681;28;20060;-77
2023/04/27 07:49:19;;;;;;;13.80;5.63;;;;;;;15.93;58.92;101838.22;10513304;28;20040;-77
2023/04/27 07:54:20;;;;;;;13.75;6.13;;;;;;;15.09;58.64;101839.00;10521608;28;20074;-77
2023/04/27 07:59:20;;;;;;;48.83;12.25;;;;;;;15.29;61.52;101833.69;10523648;28;20119;-78
2023/04/27 08:04:21;;;;;;;14.63;6.00;;;;;;;16.47;58.59;101827.97;10523211;28;20064;-76
2023/04/27 08:09:21;;;;;;;12.27;7.22;;;;;;;16.80;57.41;101819.53;10517428;28;20115;-76
2023/04/27 08:14:22;;;;;;;9.65;5.07;;;;;;;16.57;53.77;101816.91;10491639;28;20052;-77
2023/04/27 08:19:22;;;;;;;11.02;6.00;;;;;;;16.56;54.81;101821.31;10500197;28;20032;-77
2023/04/27 08:24:23;;;;;;;8.85;5.47;;;;;;;17.69;51.54;101818.25;10521957;28;20475;-78
2023/04/27 08:29:23;;;;;;;23.85;11.45;;;;;;;17.43;49.02;101816.53;10523126;28;20063;-78
2023/04/27 08:34:24;;;;;;;15.02;5.93;;;;;;;16.35;50.62;101817.84;10516555;28;20048;-78
2023/04/27 08:39:25;;;;;;;9.57;4.82;;;;;;;17.45;49.52;101814.84;10509178;28;20044;-78
2023/04/27 08:44:25;;;;;;;7.72;4.38;;;;;;;18.12;48.59;101813.50;10520947;28;20119;-79
2023/04/27 08:49:26;;;;;;;8.00;4.85;;;;;;;17.75;46.56;101807.88;10526504;28;20135;-79
2023/04/27 08:54:26;;;;;;;8.68;4.65;;;;;;;17.00;44.89;101794.75;10528342;28;20052;-80
2023/04/27 08:59:27;;;;;;;10.40;5.32;;;;;;;17.08;46.59;101788.84;10528128;28;20040;-79
2023/04/27 09:04:40;;;;;;;11.57;7.15;;;;;;;18.33;46.04;101792.06;10510721;28;20655;-79
2023/04/27 09:09:41;;;;;;;9.50;4.93;;;;;;;19.18;40.57;101790.97;10510269;28;20045;-79
2023/04/27 09:14:42;;;;;;;15.90;6.20;;;;;;;18.90;40.37;101784.88;10522006;28;20039;-80
2023/04/27 09:19:42;;;;;;;13.43;4.93;;;;;;;19.25;41.63;101787.63;10502943;28;20484;-77
2023/04/27 09:24:52;;;;;;;20.45;7.05;;;;;;;19.31;40.80;101777.16;10508039;28;20470;-79
2023/04/27 09:29:53;;;;;;;13.30;5.22;;;;;;;18.44;40.08;101790.66;10501534;28;20124;-80
2023/04/27 09:34:53;;;;;;;8.43;4.10;;;;;;;18.36;40.42;101773.63;10510138;28;20517;-83
2023/04/27 09:39:54;;;;;;;6.57;4.70;;;;;;;18.05;40.33;101772.69;10530581;28;20136;-79
2023/04/27 09:44:54;;;;;;;8.50;4.57;;;;;;;18.12;40.52;101784.38;10507830;28;20102;-80
2023/04/27 09:49:55;;;;;;;7.30;4.57;;;;;;;18.00;39.77;101787.53;10528428;28;20052;-78
2023/04/27 09:54:56;;;;;;;7.10;4.32;;;;;;;17.31;37.76;101772.03;10510054;28;20055;-78
2023/04/27 10:00:23;;;;;;;5.20;3.25;;;;;;;17.46;37.92;101769.03;10504862;28;20392;-78
2023/04/27 10:05:38;;;;;;;9.38;4.47;;;;;;;17.52;39.56;101762.13;10490216;28;20059;-77
2023/04/27 10:10:48;;;;;;;13.55;4.60;;;;;;;18.01;38.27;101753.16;10525305;28;20036;-78
2023/04/27 10:15:49;;;;;;;8.18;4.03;;;;;;;18.58;38.32;101747.75;10504257;28;20391;-78
2023/04/27 10:20:51;;;;;;;16.52;4.40;;;;;;;17.99;38.17;101752.19;10517696;28;20071;-80
2023/04/27 10:25:52;;;;;;;;;;;;;;;18.45;35.90;101743.84;10523436;28;20445;-76
2023/04/27 10:30:52;;;;;;;7.00;3.70;;;;;;;18.54;36.32;101744.13;10524509;28;19949;-76
2023/04/27 10:35:57;;;;;;;6.53;3.33;;;;;;;19.06;36.17;101741.16;10509392;28;20119;-77
2023/04/27 10:41:01;;;;;;;9.52;5.50;;;;;;;19.16;34.80;101747.56;10525215;28;20041;-75
2023/04/27 10:46:09;;;;;;;7.45;4.00;;;;;;;18.10;37.28;101754.28;10517007;28;20506;-78
2023/04/27 10:51:14;;;;;;;11.38;6.55;;;;;;;18.22;39.69;101749.38;10507338;28;20131;-79
2023/04/27 10:56:14;;;;;;;5.28;3.38;;;;;;;18.10;36.31;101749.88;10519349;28;20032;-78
2023/04/27 11:01:25;;;;;;;6.68;4.35;;;;;;;18.27;38.42;101730.94;10523270;28;20124;-77
2023/04/27 11:06:32;;;;;;;6.00;4.00;;;;;;;17.77;36.60;101732.06;10511099;28;20054;-78
2023/04/27 11:11:32;;;;;;;7.80;4.20;;;;;;;17.23;37.70;101725.00;10503583;28;20032;-80
2023/04/27 11:16:33;;;;;;;11.05;6.80;;;;;;;17.53;40.11;101721.59;10519065;28;20036;-79
2023/04/27 11:21:33;;;;;;;7.38;3.80;;;;;;;17.65;38.86;101703.47;10519533;28;20436;-79
2023/04/27 11:26:34;;;;;;;9.05;4.68;;;;;;;18.01;39.42;101699.28;10512433;28;20036;-79
2023/04/27 11:31:46;;;;;;;6.25;4.65;;;;;;;18.05;38.38;101695.88;10506807;28;20796;-77
2023/04/27 11:37:00;;;;;;;;;;;;;;;18.83;37.92;101701.59;10495624;28;20032;-77
2023/04/27 11:42:27;;;;;;;8.38;5.40;;;;;;;19.20;37.43;101696.38;10506531;28;19928;-78
2023/04/27 11:47:28;;;;;;;8.85;4.50;;;;;;;18.95;36.66;101684.22;10519039;28;20119;-78
2023/04/27 11:52:33;;;;;;;9.83;4.57;;;;;;;18.73;37.34;101687.19;10502830;28;20419;-76
2023/04/27 11:57:34;;;;;;;10.00;5.43;;;;;;;18.96;38.03;101681.59;10515829;28;20304;-76
2023/04/27 12:02:35;;;;;;;10.50;4.63;;;;;;;18.90;36.11;101678.78;10513944;28;20028;-77
2023/04/27 12:07:36;;;;;;;9.00;6.20;;;;;;;18.92;35.59;101670.03;10518767;28;20492;-79
2023/04/27 12:12:37;;;;;;;11.80;5.55;;;;;;;19.86;36.80;101665.19;10502941;28;20044;-79
2023/04/27 12:17:38;;;;;;;8.88;5.10;;;;;;;19.45;34.61;101681.97;10521700;28;20032;-75
2023/04/27 12:22:39;;;;;;;9.52;5.93;;;;;;;19.30;34.05;101677.19;10485113;28;20488;-76
2023/04/27 12:27:40;;;;;;;8.20;5.50;;;;;;;19.91;33.52;101674.19;10527000;28;20044;-76
2023/04/27 12:32:40;;;;;;;9.48;4.82;;;;;;;20.57;34.36;101673.75;10523203;28;20111;-76
2023/04/27 12:37:41;;;;;;;7.68;5.30;;;;;;;20.04;34.89;101664.72;10517729;28;20707;-76
2023/04/27 12:42:41;;;;;;;7.30;5.15;;;;;;;20.34;32.18;101657.34;10520186;28;20142;-75
2023/04/27 12:47:42;;;;;;;9.98;5.68;;;;;;;20.92;33.05;101656.66;10494304;28;20072;-75
2023/04/27 12:52:42;;;;;;;11.70;5.45;;;;;;;20.59;31.95;101653.41;10518827;28;20109;-76
2023/04/27 12:57:46;;;;;;;11.10;6.80;;;;;;;20.18;33.82;101654.38;10527461;28;20068;-74
2023/04/27 13:02:46;;;;;;;11.52;6.63;;;;;;;19.41;33.93;101644.69;10529812;28;20036;-76
2023/04/27 13:07:47;;;;;;;8.38;5.57;;;;;;;19.57;35.77;101656.56;10528711;28;20551;-76
2023/04/27 13:12:47;;;;;;;8.02;5.97;;;;;;;19.45;36.11;101642.16;10529513;28;20043;-76
2023/04/27 13:17:48;;;;;;;10.50;6.75;;;;;;;19.05;34.89;101644.72;10537705;28;20050;-76
2023/04/27 13:22:48;;;;;;;10.18;5.60;;;;;;;19.06;36.67;101643.00;10528431;28;20067;-75
2023/04/27 13:27:50;;;;;;;9.65;6.57;;;;;;;19.14;35.22;101649.38;10530443;28;20032;-75
2023/04/27 13:32:51;;;;;;;11.05;5.85;;;;;;;19.99;35.75;101620.31;10526792;28;20032;-76
2023/04/27 13:37:54;;;;;;;11.03;6.87;;;;;;;18.67;34.90;101620.75;10496809;28;20045;-77
2023/04/27 13:42:55;;;;;;;10.73;6.28;;;;;;;17.97;36.53;101615.25;10495434;28;20044;-76
2023/04/27 13:47:55;;;;;;;11.18;5.78;;;;;;;17.60;37.49;101613.31;10528292;28;20036;-75
2023/04/27 13:52:56;;;;;;;11.13;5.95;;;;;;;17.77;36.69;101604.97;10501851;28;20443;-75
2023/04/27 13:57:56;;;;;;;7.97;4.95;;;;;;;18.37;35.54;101599.63;10518325;28;20139;-76
2023/04/27 14:02:57;;;;;;;11.13;7.18;;;;;;;17.87;38.50;101588.50;10523851;28;20119;-77
2023/04/27 14:07:57;;;;;;;12.32;6.40;;;;;;;17.06;38.66;101576.31;10512032;28;20150;-76
2023/04/27 14:12:58;;;;;;;7.65;5.53;;;;;;;16.38;38.67;101582.88;10526196;28;20063;-76
2023/04/27 14:17:58;;;;;;;9.38;5.85;;;;;;;16.21;40.11;101567.31;10532700;28;20442;-76
2023/04/27 14:23:00;;;;;;;8.60;5.45;;;;;;;16.10;38.80;101561.63;10519064;28;20123;-77
2023/04/27 14:28:01;;;;;;;11.47;5.87;;;;;;;16.37;39.74;101557.28;10520065;28;20036;-77
2023/04/27 14:33:01;;;;;;;11.93;7.60;;;;;;;16.29;40.49;101547.34;10524001;28;20147;-77
2023/04/27 14:38:03;;;;;;;9.13;7.03;;;;;;;16.59;38.09;101545.69;10523797;28;20399;-77
2023/04/27 14:43:03;;;;;;;8.97;6.20;;;;;;;16.31;37.92;101528.91;10511425;28;20044;-76
2023/04/27 14:48:04;;;;;;;10.82;6.65;;;;;;;16.14;41.07;101523.06;10496461;28;20154;-76
2023/04/27 14:53:04;;;;;;;10.48;7.13;;;;;;;16.33;39.65;101508.72;10509465;28;20426;-77
2023/04/27 14:58:05;;;;;;;9.60;6.25;;;;;;;16.80;38.80;101510.25;10521924;28;20157;-76
2023/04/27 15:03:05;;;;;;;14.40;6.88;;;;;;;16.39;39.35;101511.56;10502047;28;20067;-76
2023/04/27 15:08:06;;;;;;;14.15;5.75;;;;;;;15.88;40.25;101509.81;10512629;28;20523;-76
2023/04/27 15:13:06;;;;;;;14.48;6.13;;;;;;;15.83;39.89;101500.81;10507455;28;20067;-76
2023/04/27 15:18:10;;;;;;;10.90;5.70;;;;;;;15.17;40.36;101515.03;10520948;28;20127;-77
2023/04/27 15:23:17;;;;;;;12.30;5.45;;;;;;;15.08;41.80;101502.38;10513413;28;20039;-77
2023/04/27 15:28:18;;;;;;;8.85;6.38;;;;;;;14.94;40.30;101501.84;10524244;28;20032;-76
2023/04/27 15:33:19;;;;;;;10.95;5.97;;;;;;;14.31;41.39;101508.03;10525742;28;20564;-77
2023/04/27 15:38:19;;;;;;;10.90;5.53;;;;;;;14.09;43.64;101504.47;10505462;28;20097;-76
2023/04/27 15:43:20;;;;;;;10.73;6.10;;;;;;;14.14;43.73;101509.91;10520700;28;20036;-76
2023/04/27 15:48:21;;;;;;;12.13;5.82;;;;;;;14.03;42.18;101491.03;10525214;28;20452;-77
2023/04/27 15:53:21;;;;;;;11.90;6.85;;;;;;;13.79;43.79;101495.28;10520409;28;20509;-77
2023/04/27 15:58:22;;;;;;;7.43;5.90;;;;;;;13.86;45.71;101485.94;10521840;28;20116;-76
2023/04/27 16:03:22;;;;;;;11.05;5.82;;;;;;;13.81;43.79;101484.84;10520367;28;20095;-77
2023/04/27 16:08:25;;;;;;;12.52;6.63;;;;;;;13.75;44.16;101488.09;10484588;28;20060;-75
2023/04/27 16:13:27;;;;;;;10.43;5.30;;;;;;;13.85;44.91;101470.06;10510897;28;20035;-75
2023/04/27 16:18:27;;;;;;;7.65;5.47;;;;;;;13.74;44.03;101472.25;10525020;28;20479;-75
2023/04/27 16:23:28;;;;;;;13.52;6.78;;;;;;;13.57;45.68;101466.22;10524080;28;20054;-75
2023/04/27 16:28:28;;;;;;;12.27;7.60;;;;;;;13.59;46.90;101456.66;10523528;28;20062;-75
2023/04/27 16:33:29;;;;;;;7.15;4.40;;;;;;;13.76;46.38;101441.66;10524043;28;20130;-75
2023/04/27 16:38:29;;;;;;;10.05;5.57;;;;;;;13.64;45.59;101439.38;10524769;28;20107;-75
2023/04/27 16:43:32;;;;;;;13.27;6.53;;;;;;;13.33;50.42;101430.97;10524919;28;20514;-75
2023/04/27 16:48:32;;;;;;;13.85;8.30;;;;;;;12.93;47.27;101422.13;10517117;28;20047;-75
2023/04/27 16:53:33;;;;;;;10.38;6.65;;;;;;;12.85;49.43;101417.38;10502183;28;20055;-77
2023/04/27 16:58:34;;;;;;;10.45;7.28;;;;;;;12.74;47.60;101416.84;10517121;28;20558;-75
2023/04/27 17:03:35;;;;;;;13.68;6.43;;;;;;;12.59;47.98;101424.91;10525935;28;20040;-73
2023/04/27 17:08:36;;;;;;;12.23;7.97;;;;;;;12.37;49.51;101422.94;10485230;28;20604;-74
2023/04/27 17:13:36;;;;;;;9.23;6.90;;;;;;;12.29;51.40;101409.47;10508036;28;20044;-73
2023/04/27 17:18:37;;;;;;;10.82;6.55;;;;;;;12.15;51.09;101412.31;10500671;28;20040;-74
2023/04/27 17:23:38;;;;;;;14.02;6.85;;;;;;;12.04;51.68;101397.75;10504813;28;20111;-74
2023/04/27 17:28:38;;;;;;;13.75;6.38;;;;;;;11.87;51.52;101391.59;10460359;28;20125;-75
2023/04/27 17:33:39;;;;;;;11.27;5.68;;;;;;;11.74;52.71;101390.09;10487117;28;20548;-75
2023/04/27 17:38:39;;;;;;;11.30;5.88;;;;;;;11.58;54.97;101398.88;10491082;28;20055;-75
2023/04/27 17:43:40;;;;;;;11.95;6.35;;;;;;;11.41;54.56;101396.25;10508857;28;20078;-74
2023/04/27 17:48:41;;;;;;;10.20;5.65;;;;;;;11.24;57.65;101394.47;10511946;28;20044;-76
2023/04/27 17:53:43;;;;;;;10.30;5.47;;;;;;;11.14;58.19;101385.22;10531925;28;20543;-74
2023/04/27 17:58:44;;;;;;;12.07;6.40;;;;;;;10.98;62.10;101378.25;10511907;28;20387;-75
2023/04/27 18:03:44;;;;;;;15.80;5.75;;;;;;;10.81;62.96;101373.00;10524689;28;20124;-75
2023/04/27 18:08:45;;;;;;;9.32;5.68;;;;;;;10.73;62.68;101374.28;10499080;28;20060;-74
2023/04/27 18:13:45;;;;;;;15.77;7.68;;;;;;;10.72;62.05;101365.56;10499271;28;20074;-75
2023/04/27 18:18:46;;;;;;;10.13;5.07;;;;;;;10.76;63.81;101365.72;10518908;28;20066;-75
2023/04/27 18:23:47;;;;;;;9.27;5.93;;;;;;;10.56;66.48;101357.66;10510747;28;20048;-76
2023/04/27 18:28:47;;;;;;;8.88;5.05;;;;;;;10.34;68.79;101345.97;10488432;28;20543;-75
2023/04/27 18:33:48;;;;;;;10.90;6.30;;;;;;;10.24;67.25;101352.38;10507004;28;20036;-76
2023/04/27 18:38:48;;;;;;;7.35;4.93;;;;;;;10.15;68.43;101354.47;10516166;28;20131;-75
2023/04/27 18:43:49;;;;;;;12.20;5.53;;;;;;;10.03;69.92;101359.00;10509745;28;20036;-74
2023/04/27 18:48:50;;;;;;;14.70;7.57;;;;;;;9.99;70.77;101352.72;10522189;28;20060;-74
2023/04/27 18:53:51;;;;;;;12.18;6.40;;;;;;;9.80;78.48;101353.34;10516200;28;20123;-76
2023/04/27 18:58:52;;;;;;;11.65;4.65;;;;;;;9.58;85.70;101361.63;10480958;28;20064;-76
2023/04/27 19:03:53;;;;;;;7.13;4.00;;;;;;;9.47;91.25;101366.19;10525701;28;20115;-76
2023/04/27 19:08:55;;;;;;;7.10;4.80;;;;;;;9.32;97.46;101376.63;10518148;28;20483;-76
2023/04/27 19:13:55;;;;;;;11.77;5.00;;;;;;;9.25;100.00;101380.56;10523739;28;20495;-75
2023/04/27 19:18:56;;;;;;;7.65;4.10;;;;;;;9.16;100.00;101393.06;10523356;28;20329;-76
2023/04/27 19:23:56;;;;;;;14.60;5.95;;;;;;;9.02;100.00;101387.00;10513683;28;20127;-75
2023/04/27 19:28:57;;;;;;;9.63;4.63;;;;;;;9.00;100.00;101376.44;10500992;28;20044;-76
2023/04/27 19:33:59;;;;;;;10.13;5.13;;;;;;;9.00;100.00;101372.94;10517354;28;20123;-76
2023/04/27 19:38:59;;;;;;;13.52;6.03;;;;;;;8.91;100.00;101370.66;10518574;28;20039;-76
2023/04/27 19:44:00;;;;;;;12.00;5.05;;;;;;;8.86;100.00;101364.25;10488022;28;20043;-76
2023/04/27 19:49:00;;;;;;;25.42;18.45;;;;;;;8.78;100.00;101369.88;10518487;28;20044;-75
2023/04/27 19:54:01;;;;;;;11.80;5.97;;;;;;;8.71;100.00;101370.31;10521199;28;20466;-76
2023/04/27 19:59:02;;;;;;;8.40;6.07;;;;;;;8.71;100.00;101354.66;10519806;28;20071;-76
2023/04/27 20:04:02;;;;;;;13.35;5.32;;;;;;;8.74;100.00;101365.28;10504917;28;20477;-76
2023/04/27 20:09:03;;;;;;;10.73;6.40;;;;;;;8.75;100.00;101359.25;10520248;28;20218;-75
2023/04/27 20:14:03;;;;;;;13.32;7.45;;;;;;;8.87;100.00;101351.31;10520444;28;20548;-75
2023/04/27 20:19:05;;;;;;;13.07;7.63;;;;;;;8.88;100.00;101347.88;10524282;28;20070;-76
2023/04/27 20:24:06;;;;;;;11.25;6.78;;;;;;;9.02;100.00;101345.22;10523709;28;20035;-76
2023/04/27 20:29:07;;;;;;;13.02;6.18;;;;;;;9.05;100.00;101340.19;10518431;28;20035;-76
2023/04/27 20:34:07;;;;;;;12.75;6.13;;;;;;;9.06;100.00;101328.94;10517230;28;20040;-76
2023/04/27 20:39:09;;;;;;;10.23;6.00;;;;;;;9.06;100.00;101324.59;10524329;28;20067;-76
2023/04/27 20:44:10;;;;;;;10.43;6.05;;;;;;;9.13;100.00;101319.75;10523712;28;20119;-75
2023/04/27 20:49:11;;;;;;;15.40;6.03;;;;;;;9.13;100.00;101315.44;10528339;28;20502;-76
2023/04/27 20:54:11;;;;;;;15.38;6.68;;;;;;;9.16;99.85;101306.88;10534048;28;20046;-76
2023/04/27 20:59:12;;;;;;;15.10;7.68;;;;;;;9.14;100.00;101295.44;10500120;28;20092;-75
2023/04/27 21:04:12;;;;;;;12.88;7.43;;;;;;;9.15;97.00;101297.25;10521476;28;20047;-76
2023/04/27 21:09:13;;;;;;;14.25;6.18;;;;;;;9.11;99.70;101281.41;10508880;28;20040;-76
2023/04/27 21:14:13;;;;;;;10.35;6.25;;;;;;;9.08;100.00;101281.22;10517307;28;20119;-75
2023/04/27 21:19:15;;;;;;;12.00;6.57;;;;;;;9.03;100.00;101269.59;10520903;28;20044;-77
2023/04/27 21:24:15;;;;;;;14.77;7.90;;;;;;;8.94;100.00;101263.81;10527174;28;20081;-77
2023/04/27 21:29:16;;;;;;;39.75;25.60;;;;;;;8.89;100.00;101245.28;10509792;28;20063;-77
2023/04/27 21:34:16;;;;;;;11.88;7.80;;;;;;;8.94;100.00;101240.31;10509012;28;20485;-75
2023/04/27 21:39:17;;;;;;;10.77;6.18;;;;;;;8.85;100.00;101219.78;10498509;28;20063;-76
2023/04/27 21:44:17;;;;;;;10.38;6.35;;;;;;;8.85;100.00;101221.50;10517821;28;20491;-77
2023/04/27 21:49:18;;;;;;;12.82;7.03;;;;;;;9.04;100.00;101210.47;10526513;28;20131;-75
2023/04/27 21:54:18;;;;;;;12.13;7.03;;;;;;;9.11;100.00;101202.19;10515289;28;20109;-76
2023/04/27 21:59:20;;;;;;;11.15;5.07;;;;;;;9.13;99.27;101197.94;10525480;28;20074;-75
2023/04/27 22:04:21;;;;;;;8.87;4.70;;;;;;;9.07;97.22;101195.84;10527183;28;20085;-76
2023/04/27 22:09:21;;;;;;;13.25;6.22;;;;;;;9.10;100.00;101193.41;10520356;28;20271;-75
2023/04/27 22:14:22;;;;;;;8.73;5.85;;;;;;;9.01;100.00;101190.28;10511701;28;20056;-76
2023/04/27 22:19:31;;;;;;;11.70;5.43;;;;;;;8.98;100.00;101179.66;10516255;28;20595;-76
2023/04/27 22:24:32;;;;;;;14.48;6.93;;;;;;;8.99;100.00;101184.06;10526382;28;20115;-76
2023/04/27 22:29:32;;;;;;;11.45;6.63;;;;;;;8.95;100.00;101182.06;10529275;28;20066;-75
2023/04/27 22:34:33;;;;;;;13.98;7.70;;;;;;;8.98;100.00;101170.94;10527424;28;20048;-75
2023/04/27 22:39:33;;;;;;;14.25;6.82;;;;;;;8.92;100.00;101171.44;10525440;28;20115;-75
2023/04/27 22:44:34;;;;;;;10.93;6.63;;;;;;;8.88;100.00;101159.03;10499022;28;20047;-76
2023/04/27 22:49:36;;;;;;;11.48;6.32;;;;;;;8.78;100.00;101158.47;10516236;28;20139;-76